createdAt,value
2018-04-08T00:02:04.424Z,11.07
2018-04-08T00:04:31.938Z,11.23
2018-04-08T00:06:59.484Z,11.34
2018-04-08T00:09:26.994Z,11.27
2018-04-08T00:11:54.509Z,11.37
2018-04-08T00:14:22.018Z,11.41
2018-04-08T00:16:49.570Z,11.42
2018-04-08T00:19:17.081Z,11.43
2018-04-08T00:21:44.609Z,11.46
2018-04-08T00:24:12.132Z,11.41
2018-04-08T00:26:39.629Z,11.42
2018-04-08T00:29:07.134Z,11.41
2018-04-08T00:31:34.677Z,11.44
2018-04-08T00:34:02.186Z,11.48
2018-04-08T00:36:29.737Z,11.44
2018-04-08T00:38:57.244Z,11.41
2018-04-08T00:41:24.745Z,11.34
2018-04-08T00:43:52.253Z,11.22
2018-04-08T00:46:19.767Z,11.34
2018-04-08T00:48:47.329Z,11.23
2018-04-08T00:51:14.832Z,11.16
2018-04-08T00:53:42.345Z,11.19
2018-04-08T00:56:09.857Z,11.16
2018-04-08T00:58:37.369Z,11.13
2018-04-08T01:01:05.058Z,11.07
2018-04-08T01:03:32.594Z,11.00
2018-04-08T01:06:00.144Z,10.94
2018-04-08T01:08:27.653Z,11.06
2018-04-08T01:10:55.161Z,11.09
2018-04-08T01:13:22.672Z,11.05
2018-04-08T01:15:50.230Z,10.88
2018-04-08T01:18:17.749Z,10.85
2018-04-08T01:20:45.265Z,10.86
2018-04-08T01:23:12.777Z,10.77
2018-04-08T01:25:40.327Z,10.74
2018-04-08T01:28:07.845Z,10.77
2018-04-08T01:30:35.400Z,10.78
2018-04-08T01:33:02.952Z,10.81
2018-04-08T01:35:30.461Z,10.64
2018-04-08T01:37:57.978Z,10.71
2018-04-08T01:40:25.536Z,10.64
2018-04-08T01:42:53.046Z,10.65
2018-04-08T01:45:20.556Z,10.46
2018-04-08T01:47:48.073Z,10.36
2018-04-08T01:50:15.585Z,10.24
2018-04-08T01:52:43.171Z,10.23
2018-04-08T01:55:10.690Z,10.01
2018-04-08T01:57:38.197Z,9.88
2018-04-08T02:00:05.749Z,9.72
2018-04-08T02:02:33.245Z,9.66
2018-04-08T02:05:00.748Z,9.67
2018-04-08T02:07:28.260Z,9.70
2018-04-08T02:09:55.816Z,9.77
2018-04-08T02:12:23.320Z,9.57
2018-04-08T02:14:50.817Z,9.65
2018-04-08T02:17:18.600Z,9.54
2018-04-08T02:19:46.106Z,9.56
2018-04-08T02:22:13.612Z,9.51
2018-04-08T02:24:41.158Z,9.50
2018-04-08T02:27:08.673Z,9.43
2018-04-08T02:29:36.184Z,9.43
2018-04-08T02:32:03.721Z,9.44
2018-04-08T02:34:31.265Z,9.33
2018-04-08T02:36:58.769Z,9.18
2018-04-08T02:39:26.321Z,9.17
2018-04-08T02:41:53.847Z,9.21
2018-04-08T02:44:21.392Z,9.19
2018-04-08T02:46:48.937Z,9.14
2018-04-08T02:49:16.441Z,9.10
2018-04-08T02:51:43.984Z,9.15
2018-04-08T02:54:11.498Z,9.15
2018-04-08T02:56:39.041Z,9.10
2018-04-08T02:59:06.541Z,9.06
2018-04-08T03:01:34.092Z,9.16
2018-04-08T03:04:01.629Z,9.19
2018-04-08T03:06:29.142Z,9.38
2018-04-08T03:08:56.653Z,9.49
2018-04-08T03:11:24.164Z,9.43
2018-04-08T03:13:51.669Z,9.35
2018-04-08T03:16:19.185Z,9.46
2018-04-08T03:18:46.695Z,9.47
2018-04-08T03:21:14.202Z,9.49
2018-04-08T03:23:41.716Z,9.46
2018-04-08T03:26:09.222Z,9.41
2018-04-08T03:28:36.728Z,9.29
2018-04-08T03:31:04.261Z,9.43
2018-04-08T03:33:31.777Z,9.47
2018-04-08T03:35:59.282Z,9.19
2018-04-08T03:38:26.793Z,9.35
2018-04-08T03:40:54.310Z,9.35
2018-04-08T03:43:21.828Z,9.34
2018-04-08T03:45:49.370Z,9.27
2018-04-08T03:48:16.881Z,9.37
2018-04-08T03:50:44.390Z,9.33
2018-04-08T03:53:11.930Z,9.49
2018-04-08T03:55:39.428Z,9.57
2018-04-08T03:58:06.977Z,9.34
2018-04-08T04:00:34.497Z,9.47
2018-04-08T04:03:02.003Z,9.48
2018-04-08T04:05:29.521Z,9.17
2018-04-08T04:07:57.069Z,9.31
2018-04-08T04:10:24.575Z,9.18
2018-04-08T04:12:52.111Z,9.33
2018-04-08T04:15:19.647Z,9.54
2018-04-08T04:17:47.160Z,9.66
2018-04-08T04:20:26.412Z,9.62
2018-04-08T04:23:05.776Z,9.61
2018-04-08T04:28:39.228Z,9.65
2018-04-08T04:31:06.785Z,9.77
2018-04-08T04:33:34.292Z,10.08
2018-04-08T04:36:01.796Z,10.30
2018-04-08T04:38:29.352Z,10.76
2018-04-08T04:40:56.863Z,11.31
2018-04-08T04:43:24.423Z,11.64
2018-04-08T04:45:51.972Z,12.10
2018-04-08T04:48:19.517Z,12.19
2018-04-08T04:50:47.020Z,12.46
2018-04-08T04:53:14.569Z,12.75
2018-04-08T04:55:42.079Z,12.17
2018-04-08T04:58:09.584Z,12.40
2018-04-08T05:00:37.136Z,12.71
2018-04-08T05:03:04.640Z,13.31
2018-04-08T05:05:32.188Z,13.41
2018-04-08T05:07:59.702Z,13.49
2018-04-08T05:10:27.249Z,13.63
2018-04-08T05:12:54.762Z,14.07
2018-04-08T05:15:22.304Z,14.66
2018-04-08T05:17:49.813Z,14.58
2018-04-08T05:20:17.364Z,14.31
2018-04-08T05:22:44.864Z,14.50
2018-04-08T05:25:12.382Z,14.95
2018-04-08T05:27:39.900Z,15.44
2018-04-08T05:30:07.440Z,15.70
2018-04-08T05:32:34.952Z,16.25
2018-04-08T05:35:02.462Z,17.12
2018-04-08T05:37:29.982Z,16.83
2018-04-08T05:39:57.488Z,16.14
2018-04-08T05:42:25.040Z,16.64
2018-04-08T05:44:52.584Z,16.47
2018-04-08T05:47:21.033Z,16.20
2018-04-08T05:49:48.552Z,16.86
2018-04-08T05:52:16.065Z,16.97
2018-04-08T05:54:43.569Z,16.93
2018-04-08T05:57:11.078Z,16.74
2018-04-08T05:59:38.621Z,17.71
2018-04-08T06:02:06.165Z,18.18
2018-04-08T06:04:33.678Z,17.78
2018-04-08T06:07:01.215Z,18.57
2018-04-08T06:09:28.727Z,18.14
2018-04-08T06:11:56.281Z,18.22
2018-04-08T06:14:23.789Z,17.85
2018-04-08T06:16:52.217Z,18.37
2018-04-08T06:19:19.738Z,18.09
2018-04-08T06:21:47.287Z,17.14
2018-04-08T06:24:14.806Z,16.87
2018-04-08T06:26:42.314Z,18.23
2018-04-08T06:29:09.817Z,18.60
2018-04-08T06:31:37.377Z,18.88
2018-04-08T06:34:04.896Z,20.49
2018-04-08T06:36:32.413Z,21.16
2018-04-08T06:38:59.969Z,21.01
2018-04-08T06:41:27.480Z,21.00
2018-04-08T06:43:54.995Z,20.94
2018-04-08T06:46:22.642Z,20.68
2018-04-08T06:48:50.154Z,21.75
2018-04-08T06:51:17.733Z,20.97
2018-04-08T06:53:45.263Z,21.59
2018-04-08T06:56:12.816Z,22.96
2018-04-08T06:58:40.331Z,22.44
2018-04-08T07:01:07.898Z,22.65
2018-04-08T07:03:35.421Z,21.72
2018-04-08T07:06:02.971Z,20.93
2018-04-08T07:08:30.576Z,22.87
2018-04-08T07:10:58.092Z,22.68
2018-04-08T07:13:25.670Z,23.06
2018-04-08T07:15:53.230Z,23.11
2018-04-08T07:18:20.808Z,23.13
2018-04-08T07:20:48.312Z,23.06
2018-04-08T07:23:15.825Z,22.28
2018-04-08T07:25:43.372Z,21.76
2018-04-08T07:28:10.887Z,22.94
2018-04-08T07:30:38.457Z,22.43
2018-04-08T07:33:05.961Z,22.55
2018-04-08T07:35:33.487Z,23.21
2018-04-08T07:38:01.039Z,24.21
2018-04-08T07:40:28.528Z,23.50
2018-04-08T07:42:56.037Z,23.74
2018-04-08T07:45:23.593Z,23.83
2018-04-08T07:47:51.121Z,23.65
2018-04-08T07:50:18.653Z,24.09
2018-04-08T07:52:46.198Z,23.96
2018-04-08T07:55:13.712Z,23.94
2018-04-08T07:57:41.226Z,23.60
2018-04-08T08:00:08.782Z,23.70
2018-04-08T08:02:36.285Z,23.70
2018-04-08T08:05:03.839Z,23.37
2018-04-08T08:07:31.357Z,23.33
2018-04-08T08:09:58.873Z,22.86
2018-04-08T08:12:26.429Z,24.24
2018-04-08T08:14:53.936Z,23.76
2018-04-08T08:17:21.481Z,23.91
2018-04-08T08:19:48.997Z,22.32
2018-04-08T08:22:16.521Z,23.25
2018-04-08T08:24:44.076Z,24.42
2018-04-08T08:27:11.632Z,24.61
2018-04-08T08:29:39.197Z,22.83
2018-04-08T08:32:06.704Z,22.98
2018-04-08T08:34:34.281Z,23.51
2018-04-08T08:37:01.795Z,23.48
2018-04-08T08:39:29.330Z,23.23
2018-04-08T08:41:56.881Z,24.61
2018-04-08T08:44:24.392Z,26.39
2018-04-08T08:46:51.913Z,24.98
2018-04-08T08:49:19.434Z,24.96
2018-04-08T08:51:46.943Z,24.20
2018-04-08T08:54:14.496Z,23.31
2018-04-08T08:56:42.011Z,24.04
2018-04-08T08:59:09.555Z,25.30
2018-04-08T09:01:37.101Z,25.39
2018-04-08T09:04:04.671Z,25.37
2018-04-08T09:06:32.219Z,24.97
2018-04-08T09:08:59.745Z,25.61
2018-04-08T09:11:27.297Z,26.18
2018-04-08T09:13:54.793Z,25.76
2018-04-08T09:16:22.300Z,27.07
2018-04-08T09:18:52.640Z,28.33
2018-04-08T09:21:31.853Z,27.21
2018-04-08T09:24:04.297Z,25.21
2018-04-08T09:26:31.841Z,21.63
2018-04-08T09:28:59.388Z,23.19
2018-04-08T09:31:26.894Z,24.16
2018-04-08T09:33:54.412Z,25.69
2018-04-08T09:36:21.976Z,27.33
2018-04-08T09:38:49.482Z,25.94
2018-04-08T09:41:16.985Z,26.47
2018-04-08T09:43:45.236Z,27.50
2018-04-08T09:46:12.745Z,27.37
2018-04-08T09:48:40.245Z,26.78
2018-04-08T09:51:07.748Z,27.08
2018-04-08T09:53:35.253Z,27.77
2018-04-08T09:56:02.767Z,28.46
2018-04-08T09:58:30.315Z,28.18
2018-04-08T10:04:00.976Z,26.97
2018-04-08T10:06:28.524Z,27.12
2018-04-08T10:08:56.033Z,27.45
2018-04-08T10:11:23.577Z,27.86
2018-04-08T10:13:51.080Z,28.28
2018-04-08T10:16:18.594Z,28.15
2018-04-08T10:18:46.148Z,28.27
2018-04-08T10:21:13.663Z,28.57
2018-04-08T10:23:41.243Z,28.99
2018-04-08T10:26:08.754Z,28.13
2018-04-08T10:28:36.265Z,27.60
2018-04-08T10:31:03.852Z,27.26
2018-04-08T10:33:31.430Z,26.35
2018-04-08T10:35:59.049Z,26.88
2018-04-08T10:38:26.709Z,27.18
2018-04-08T10:40:54.293Z,27.26
2018-04-08T10:43:21.837Z,27.92
2018-04-08T10:45:49.368Z,29.20
2018-04-08T10:48:17.006Z,29.23
2018-04-08T10:50:44.546Z,29.89
2018-04-08T10:53:12.097Z,27.38
2018-04-08T10:55:39.605Z,28.42
2018-04-08T10:58:07.124Z,28.40
2018-04-08T11:00:34.685Z,27.76
2018-04-08T11:03:02.243Z,27.75
2018-04-08T11:05:29.765Z,28.15
2018-04-08T11:07:57.273Z,28.58
2018-04-08T11:10:24.772Z,28.42
2018-04-08T11:12:52.337Z,28.75
2018-04-08T11:15:19.848Z,28.64
2018-04-08T11:17:47.397Z,27.37
2018-04-08T11:20:14.909Z,27.87
2018-04-08T11:22:42.417Z,27.45
2018-04-08T11:25:09.934Z,26.68
2018-04-08T11:27:37.489Z,27.24
2018-04-08T11:30:05.584Z,28.46
2018-04-08T11:32:33.137Z,29.25
2018-04-08T11:35:00.687Z,27.97
2018-04-08T11:37:28.187Z,28.93
2018-04-08T11:39:55.806Z,29.56
2018-04-08T11:42:23.313Z,30.47
2018-04-08T11:44:50.863Z,30.39
2018-04-08T11:47:18.418Z,28.72
2018-04-08T11:49:45.974Z,28.22
2018-04-08T11:52:13.482Z,29.08
2018-04-08T11:54:40.987Z,28.08
2018-04-08T11:57:08.539Z,28.72
2018-04-08T11:59:36.080Z,28.80
2018-04-08T12:02:03.699Z,28.96
2018-04-08T12:04:31.180Z,28.97
2018-04-08T12:06:58.676Z,28.96
2018-04-08T12:09:26.181Z,29.14
2018-04-08T12:11:53.684Z,28.63
2018-04-08T12:14:21.194Z,28.39
2018-04-08T12:16:48.753Z,27.84
2018-04-08T12:19:16.261Z,26.99
2018-04-08T12:21:43.774Z,27.76
2018-04-08T12:24:11.272Z,26.85
2018-04-08T12:26:38.825Z,27.21
2018-04-08T12:29:06.384Z,26.81
2018-04-08T12:31:33.904Z,26.49
2018-04-08T12:34:01.436Z,26.73
2018-04-08T12:36:29.003Z,26.55
2018-04-08T12:38:56.518Z,26.90
2018-04-08T12:41:25.012Z,26.80
2018-04-08T12:43:52.529Z,26.43
2018-04-08T12:46:20.033Z,26.69
2018-04-08T12:48:47.569Z,27.41
2018-04-08T12:51:15.069Z,27.20
2018-04-08T12:53:42.575Z,26.75
2018-04-08T12:56:10.078Z,26.57
2018-04-08T12:58:37.625Z,26.55
2018-04-08T13:01:05.124Z,26.69
2018-04-08T13:03:32.677Z,26.56
2018-04-08T13:06:00.185Z,25.89
2018-04-08T13:08:27.734Z,24.77
2018-04-08T13:10:55.234Z,24.22
2018-04-08T13:13:22.740Z,24.55
2018-04-08T13:15:50.256Z,24.46
2018-04-08T13:18:17.760Z,24.43
2018-04-08T13:20:45.315Z,24.15
2018-04-08T13:23:12.816Z,24.15
2018-04-08T13:25:40.321Z,23.96
2018-04-08T13:28:07.852Z,24.02
2018-04-08T13:30:35.346Z,23.33
2018-04-08T13:33:02.848Z,23.00
2018-04-08T13:35:30.418Z,23.19
2018-04-08T13:37:57.916Z,23.09
2018-04-08T13:40:25.425Z,23.00
2018-04-08T13:42:52.925Z,23.42
2018-04-08T13:45:21.185Z,23.18
2018-04-08T13:47:48.692Z,23.04
2018-04-08T13:50:16.228Z,23.25
2018-04-08T13:52:43.735Z,23.19
2018-04-08T13:55:11.279Z,23.05
2018-04-08T13:57:38.793Z,22.92
2018-04-08T14:00:06.363Z,23.15
2018-04-08T14:02:33.914Z,23.02
2018-04-08T14:05:01.458Z,23.14
2018-04-08T14:07:28.963Z,22.84
2018-04-08T14:09:56.471Z,22.66
2018-04-08T14:12:23.978Z,22.71
2018-04-08T14:14:51.530Z,22.61
2018-04-08T14:17:19.078Z,22.53
2018-04-08T14:19:46.590Z,22.40
2018-04-08T14:22:14.097Z,22.58
2018-04-08T14:24:41.647Z,22.65
2018-04-08T14:27:09.152Z,22.26
2018-04-08T14:29:36.713Z,22.31
2018-04-08T14:32:04.225Z,22.26
2018-04-08T14:34:31.803Z,22.33
2018-04-08T14:36:59.309Z,22.36
2018-04-08T14:39:26.811Z,22.26
2018-04-08T14:41:54.341Z,22.22
2018-04-08T14:44:21.851Z,22.01
2018-04-08T14:46:49.352Z,21.95
2018-04-08T14:49:16.898Z,21.93
2018-04-08T14:51:44.401Z,21.74
2018-04-08T14:54:11.961Z,21.77
2018-04-08T14:56:39.482Z,21.71
2018-04-08T14:59:07.001Z,21.81
2018-04-08T15:01:34.556Z,22.09
2018-04-08T15:04:02.067Z,21.85
2018-04-08T15:06:29.623Z,21.55
2018-04-08T15:08:57.152Z,21.78
2018-04-08T15:11:24.697Z,21.82
2018-04-08T15:13:52.208Z,21.67
2018-04-08T15:16:19.765Z,21.68
2018-04-08T15:18:47.281Z,21.32
2018-04-08T15:21:14.823Z,21.37
2018-04-08T15:23:42.327Z,21.23
2018-04-08T15:26:09.824Z,21.02
2018-04-08T15:28:37.357Z,21.09
2018-04-08T15:31:04.904Z,21.18
2018-04-08T15:33:32.423Z,21.14
2018-04-08T15:36:00.007Z,21.04
2018-04-08T15:38:27.524Z,20.62
2018-04-08T15:40:55.085Z,20.61
2018-04-08T15:43:22.588Z,20.51
2018-04-08T15:45:50.142Z,20.63
2018-04-08T15:48:17.653Z,20.50
2018-04-08T15:50:45.209Z,20.33
2018-04-08T15:53:12.799Z,20.39
2018-04-08T15:55:40.358Z,20.34
2018-04-08T15:58:07.872Z,20.45
2018-04-08T16:00:35.405Z,20.37
2018-04-08T16:03:02.960Z,20.35
2018-04-08T16:05:30.529Z,20.29
2018-04-08T16:07:58.033Z,20.26
2018-04-08T16:10:25.549Z,20.07
2018-04-08T16:12:53.099Z,20.07
2018-04-08T16:15:20.629Z,20.10
2018-04-08T16:17:48.133Z,20.12
2018-04-08T16:20:15.644Z,19.84
2018-04-08T16:22:43.146Z,19.79
2018-04-08T16:25:10.646Z,19.66
2018-04-08T16:27:38.231Z,19.58
2018-04-08T16:30:05.756Z,19.48
2018-04-08T16:32:33.271Z,19.38
2018-04-08T16:35:00.814Z,19.47
2018-04-08T16:37:28.330Z,19.50
2018-04-08T16:39:55.820Z,19.40
2018-04-08T16:42:23.403Z,19.26
2018-04-08T16:44:50.941Z,19.18
2018-04-08T16:47:18.444Z,19.24
2018-04-08T16:49:45.953Z,19.21
2018-04-08T16:52:13.501Z,19.10
2018-04-08T16:54:40.998Z,19.06
2018-04-08T16:57:08.512Z,18.90
2018-04-08T16:59:36.026Z,18.81
2018-04-08T17:02:03.573Z,18.72
2018-04-08T17:04:31.111Z,18.61
2018-04-08T17:06:58.631Z,18.57
2018-04-08T17:09:26.211Z,18.50
2018-04-08T17:11:53.685Z,18.30
2018-04-08T17:14:21.244Z,18.16
2018-04-08T17:16:48.753Z,18.12
2018-04-08T17:19:16.316Z,18.07
2018-04-08T17:21:43.865Z,18.03
2018-04-08T17:24:11.378Z,18.02
2018-04-08T17:26:38.887Z,17.91
2018-04-08T17:29:06.409Z,17.91
2018-04-08T17:31:34.738Z,17.90
2018-04-08T17:34:02.259Z,17.90
2018-04-08T17:36:29.775Z,17.96
2018-04-08T17:38:57.281Z,18.06
2018-04-08T17:41:24.804Z,18.14
2018-04-08T17:43:52.358Z,18.08
2018-04-08T17:46:19.879Z,18.07
2018-04-08T17:48:47.410Z,18.09
2018-04-08T17:51:14.919Z,17.96
2018-04-08T17:53:42.425Z,17.93
2018-04-08T17:56:09.939Z,17.84
2018-04-08T17:58:37.457Z,17.77
2018-04-08T18:01:05.049Z,17.70
2018-04-08T18:03:32.589Z,17.61
2018-04-08T18:06:00.536Z,17.51
2018-04-08T18:08:28.050Z,17.42
2018-04-08T18:10:55.612Z,17.37
2018-04-08T18:13:23.145Z,17.27
2018-04-08T18:15:50.660Z,16.93
2018-04-08T18:18:18.173Z,16.97
2018-04-08T18:20:45.741Z,17.05
2018-04-08T18:23:13.253Z,17.05
2018-04-08T18:25:40.781Z,17.03
2018-04-08T18:28:08.300Z,16.90
2018-04-08T18:30:35.856Z,16.93
2018-04-08T18:33:03.378Z,16.91
2018-04-08T18:35:31.719Z,16.89
2018-04-08T18:37:59.284Z,16.87
2018-04-08T18:40:26.801Z,16.76
2018-04-08T18:42:54.360Z,16.76
2018-04-08T18:45:21.923Z,16.59
2018-04-08T18:47:49.432Z,16.58
2018-04-08T18:50:16.988Z,16.52
2018-04-08T18:52:44.539Z,16.51
2018-04-08T18:55:12.045Z,16.42
2018-04-08T18:57:39.595Z,16.34
2018-04-08T19:00:07.131Z,16.31
2018-04-08T19:02:34.677Z,16.27
2018-04-08T19:05:02.209Z,16.33
2018-04-08T19:07:29.778Z,16.24
2018-04-08T19:09:57.280Z,16.09
2018-04-08T19:12:24.854Z,16.14
2018-04-08T19:14:57.861Z,16.17
2018-04-08T19:17:31.021Z,16.02
2018-04-08T19:19:58.523Z,16.00
2018-04-08T19:22:26.025Z,15.94
2018-04-08T19:24:53.537Z,15.77
2018-04-08T19:27:39.621Z,15.75
2018-04-08T19:30:15.241Z,15.76
2018-04-08T19:32:42.747Z,15.84
2018-04-08T19:35:10.576Z,15.93
2018-04-08T19:37:38.083Z,15.93
2018-04-08T19:40:05.594Z,15.90
2018-04-08T19:42:33.160Z,15.83
2018-04-08T19:45:00.694Z,15.82
2018-04-08T19:47:28.257Z,15.77
2018-04-08T19:49:55.766Z,15.84
2018-04-08T19:52:23.272Z,15.68
2018-04-08T19:54:50.883Z,15.70
2018-04-08T19:57:18.390Z,15.70
2018-04-08T19:59:45.946Z,15.57
2018-04-08T20:02:13.459Z,15.59
2018-04-08T20:04:41.023Z,15.64
2018-04-08T20:07:08.540Z,15.67
2018-04-08T20:09:36.052Z,15.49
2018-04-08T20:12:03.562Z,15.56
2018-04-08T20:14:31.115Z,15.67
2018-04-08T20:16:58.617Z,15.55
2018-04-08T20:19:26.170Z,15.53
2018-04-08T20:21:53.687Z,15.52
2018-04-08T20:24:21.227Z,15.44
2018-04-08T20:26:48.786Z,15.51
2018-04-08T20:29:16.333Z,15.51
2018-04-08T20:31:43.837Z,15.43
2018-04-08T20:34:11.342Z,15.37
2018-04-08T20:36:38.853Z,15.34
2018-04-08T20:39:06.400Z,15.23
2018-04-08T20:41:33.910Z,15.28
2018-04-08T20:44:01.409Z,15.30
2018-04-08T20:46:28.960Z,15.31
2018-04-08T20:48:56.496Z,15.28
2018-04-08T20:51:24.042Z,15.23
2018-04-08T20:53:51.540Z,15.23
2018-04-08T20:56:19.054Z,15.07
2018-04-08T20:58:46.584Z,14.99
2018-04-08T21:01:14.124Z,14.99
2018-04-08T21:03:41.634Z,14.99
2018-04-08T21:06:09.196Z,14.61
2018-04-08T21:08:36.700Z,14.83
2018-04-08T21:11:04.288Z,14.79
2018-04-08T21:13:31.812Z,14.71
2018-04-08T21:15:59.399Z,14.69
2018-04-08T21:18:26.914Z,14.59
2018-04-08T21:20:54.467Z,14.43
2018-04-08T21:23:21.985Z,14.29
2018-04-08T21:25:49.537Z,14.09
2018-04-08T21:28:17.080Z,13.79
2018-04-08T21:30:44.648Z,13.57
2018-04-08T21:33:12.230Z,13.47
2018-04-08T21:35:39.773Z,13.31
2018-04-08T21:38:07.269Z,13.42
2018-04-08T21:40:34.800Z,13.50
2018-04-08T21:43:02.329Z,13.50
2018-04-08T21:45:29.840Z,13.40
2018-04-08T21:47:57.372Z,13.39
2018-04-08T21:50:24.881Z,13.45
2018-04-08T21:52:52.423Z,13.45
2018-04-08T21:55:21.719Z,13.44
2018-04-08T21:57:49.289Z,13.36
2018-04-08T22:00:16.825Z,13.36
2018-04-08T22:02:44.326Z,13.25
2018-04-08T22:05:11.865Z,13.20
2018-04-08T22:07:39.385Z,12.97
2018-04-08T22:10:06.886Z,13.00
2018-04-08T22:12:34.439Z,12.95
2018-04-08T22:15:01.948Z,12.88
2018-04-08T22:17:29.452Z,13.00
2018-04-08T22:19:56.979Z,13.01
2018-04-08T22:22:24.487Z,12.98
2018-04-08T22:24:51.995Z,12.87
2018-04-08T22:27:19.509Z,12.90
2018-04-08T22:29:47.056Z,12.91
2018-04-08T22:32:14.553Z,12.89
2018-04-08T22:34:42.069Z,12.83
2018-04-08T22:37:09.588Z,12.92
2018-04-08T22:39:37.148Z,12.97
2018-04-08T22:42:04.696Z,12.99
2018-04-08T22:44:32.192Z,12.98
2018-04-08T22:46:59.702Z,12.96
2018-04-08T22:49:27.205Z,13.07
2018-04-08T22:51:54.717Z,12.98
2018-04-08T22:54:22.227Z,12.99
2018-04-08T22:56:49.721Z,13.00
2018-04-08T22:59:17.230Z,12.87
2018-04-08T23:01:44.776Z,12.89
2018-04-08T23:04:12.274Z,12.78
2018-04-08T23:06:39.784Z,12.84
2018-04-08T23:09:07.329Z,12.77
2018-04-08T23:11:34.842Z,12.71
2018-04-08T23:14:02.353Z,12.66
2018-04-08T23:16:29.909Z,12.69
2018-04-08T23:18:57.412Z,12.67
2018-04-08T23:21:24.908Z,12.55
2018-04-08T23:23:52.418Z,12.48
2018-04-08T23:26:19.958Z,12.39
2018-04-08T23:28:47.520Z,12.46
2018-04-08T23:31:15.058Z,12.40
2018-04-08T23:33:43.436Z,12.37
2018-04-08T23:36:10.974Z,12.20
2018-04-08T23:38:38.478Z,12.23
2018-04-08T23:41:06.018Z,12.23
2018-04-08T23:43:33.521Z,12.23
2018-04-08T23:46:01.017Z,12.22
2018-04-08T23:48:28.516Z,12.17
2018-04-08T23:50:56.028Z,12.08
2018-04-08T23:53:23.557Z,12.10
2018-04-08T23:55:51.075Z,11.97
2018-04-08T23:58:18.618Z,12.03
